sensor_id;sensor_type;location;lat;lon;timestamp;P1;durP1;ratioP1;P2;durP2;ratioP2
76171;SDS011;64929;51.178;4.138;2024-02-26T00:01:55;1.98;;;1.40;;
76171;SDS011;64929;51.178;4.138;2024-02-26T00:04:21;2.70;;;1.23;;
76171;SDS011;64929;51.178;4.138;2024-02-26T00:06:47;2.28;;;1.20;;
76171;SDS011;64929;51.178;4.138;2024-02-26T00:09:15;1.58;;;0.93;;
76171;SDS011;64929;51.178;4.138;2024-02-26T00:11:41;1.60;;;1.08;;
76171;SDS011;64929;51.178;4.138;2024-02-26T00:14:06;2.63;;;1.20;;
76171;SDS011;64929;51.178;4.138;2024-02-26T00:16:32;4.75;;;1.60;;
76171;SDS011;64929;51.178;4.138;2024-02-26T00:18:58;2.38;;;1.17;;
76171;SDS011;64929;51.178;4.138;2024-02-26T00:21:24;2.20;;;1.23;;
76171;SDS011;64929;51.178;4.138;2024-02-26T00:23:49;2.60;;;1.00;;
76171;SDS011;64929;51.178;4.138;2024-02-26T00:26:18;4.60;;;1.10;;
76171;SDS011;64929;51.178;4.138;2024-02-26T00:28:43;1.67;;;1.13;;
76171;SDS011;64929;51.178;4.138;2024-02-26T00:31:09;2.80;;;1.10;;
76171;SDS011;64929;51.178;4.138;2024-02-26T00:33:35;2.28;;;1.30;;
76171;SDS011;64929;51.178;4.138;2024-02-26T00:36:01;1.73;;;1.23;;
76171;SDS011;64929;51.178;4.138;2024-02-26T00:38:27;2.80;;;1.13;;
76171;SDS011;64929;51.178;4.138;2024-02-26T00:40:52;2.30;;;1.40;;
76171;SDS011;64929;51.178;4.138;2024-02-26T00:43:18;1.52;;;1.13;;
76171;SDS011;64929;51.178;4.138;2024-02-26T00:45:44;4.57;;;1.20;;
76171;SDS011;64929;51.178;4.138;2024-02-26T00:48:11;2.13;;;1.35;;
76171;SDS011;64929;51.178;4.138;2024-02-26T00:50:38;2.13;;;1.15;;
76171;SDS011;64929;51.178;4.138;2024-02-26T00:53:05;1.60;;;1.05;;
76171;SDS011;64929;51.178;4.138;2024-02-26T00:55:30;1.80;;;1.17;;
76171;SDS011;64929;51.178;4.138;2024-02-26T00:57:56;2.80;;;1.08;;
76171;SDS011;64929;51.178;4.138;2024-02-26T01:00:22;1.77;;;0.80;;
76171;SDS011;64929;51.178;4.138;2024-02-26T01:02:47;3.05;;;1.10;;
76171;SDS011;64929;51.178;4.138;2024-02-26T01:05:13;1.55;;;0.90;;
76171;SDS011;64929;51.178;4.138;2024-02-26T01:07:39;1.90;;;1.30;;
76171;SDS011;64929;51.178;4.138;2024-02-26T01:10:06;1.27;;;1.10;;
76171;SDS011;64929;51.178;4.138;2024-02-26T01:12:32;1.42;;;1.05;;
76171;SDS011;64929;51.178;4.138;2024-02-26T01:14:59;3.67;;;1.67;;
76171;SDS011;64929;51.178;4.138;2024-02-26T01:17:25;1.75;;;1.55;;
76171;SDS011;64929;51.178;4.138;2024-02-26T01:19:51;1.83;;;1.10;;
76171;SDS011;64929;51.178;4.138;2024-02-26T01:22:18;1.88;;;1.33;;
76171;SDS011;64929;51.178;4.138;2024-02-26T01:24:44;2.05;;;1.05;;
76171;SDS011;64929;51.178;4.138;2024-02-26T01:27:10;2.78;;;1.33;;
76171;SDS011;64929;51.178;4.138;2024-02-26T01:29:35;2.90;;;1.33;;
76171;SDS011;64929;51.178;4.138;2024-02-26T01:32:01;2.88;;;1.50;;
76171;SDS011;64929;51.178;4.138;2024-02-26T01:34:27;1.55;;;1.00;;
76171;SDS011;64929;51.178;4.138;2024-02-26T01:36:53;1.40;;;1.17;;
76171;SDS011;64929;51.178;4.138;2024-02-26T01:39:21;1.45;;;1.13;;
76171;SDS011;64929;51.178;4.138;2024-02-26T01:41:47;1.95;;;1.50;;
76171;SDS011;64929;51.178;4.138;2024-02-26T01:44:13;2.10;;;1.10;;
76171;SDS011;64929;51.178;4.138;2024-02-26T01:46:38;3.90;;;1.05;;
76171;SDS011;64929;51.178;4.138;2024-02-26T01:49:04;1.73;;;1.13;;
76171;SDS011;64929;51.178;4.138;2024-02-26T01:51:30;1.40;;;1.30;;
76171;SDS011;64929;51.178;4.138;2024-02-26T01:53:57;3.35;;;1.42;;
76171;SDS011;64929;51.178;4.138;2024-02-26T01:56:25;2.92;;;1.08;;
76171;SDS011;64929;51.178;4.138;2024-02-26T01:58:55;1.65;;;1.30;;
76171;SDS011;64929;51.178;4.138;2024-02-26T02:01:22;1.70;;;1.20;;
76171;SDS011;64929;51.178;4.138;2024-02-26T02:06:18;2.35;;;1.20;;
76171;SDS011;64929;51.178;4.138;2024-02-26T02:08:45;1.65;;;1.05;;
76171;SDS011;64929;51.178;4.138;2024-02-26T02:11:11;3.53;;;1.70;;
76171;SDS011;64929;51.178;4.138;2024-02-26T02:13:37;1.63;;;1.02;;
76171;SDS011;64929;51.178;4.138;2024-02-26T02:16:03;3.08;;;1.30;;
76171;SDS011;64929;51.178;4.138;2024-02-26T02:18:29;1.20;;;1.10;;
76171;SDS011;64929;51.178;4.138;2024-02-26T02:20:55;3.47;;;1.40;;
76171;SDS011;64929;51.178;4.138;2024-02-26T02:23:24;2.75;;;1.70;;
76171;SDS011;64929;51.178;4.138;2024-02-26T02:25:50;2.53;;;1.98;;
76171;SDS011;64929;51.178;4.138;2024-02-26T02:28:16;1.70;;;1.55;;
76171;SDS011;64929;51.178;4.138;2024-02-26T02:30:42;2.47;;;1.90;;
76171;SDS011;64929;51.178;4.138;2024-02-26T02:33:09;3.03;;;1.90;;
76171;SDS011;64929;51.178;4.138;2024-02-26T02:35:36;4.10;;;2.35;;
76171;SDS011;64929;51.178;4.138;2024-02-26T02:38:02;2.55;;;2.25;;
76171;SDS011;64929;51.178;4.138;2024-02-26T02:40:28;2.90;;;2.10;;
76171;SDS011;64929;51.178;4.138;2024-02-26T02:42:54;3.33;;;2.45;;
76171;SDS011;64929;51.178;4.138;2024-02-26T02:45:20;2.45;;;1.95;;
76171;SDS011;64929;51.178;4.138;2024-02-26T02:47:46;3.05;;;2.33;;
76171;SDS011;64929;51.178;4.138;2024-02-26T02:50:11;3.85;;;2.47;;
76171;SDS011;64929;51.178;4.138;2024-02-26T02:52:37;4.47;;;2.50;;
76171;SDS011;64929;51.178;4.138;2024-02-26T02:55:03;3.45;;;2.53;;
76171;SDS011;64929;51.178;4.138;2024-02-26T02:57:29;3.53;;;2.67;;
76171;SDS011;64929;51.178;4.138;2024-02-26T02:59:55;4.22;;;2.47;;
76171;SDS011;64929;51.178;4.138;2024-02-26T03:02:21;5.13;;;2.97;;
76171;SDS011;64929;51.178;4.138;2024-02-26T03:04:49;4.57;;;2.75;;
76171;SDS011;64929;51.178;4.138;2024-02-26T03:07:15;5.85;;;2.83;;
76171;SDS011;64929;51.178;4.138;2024-02-26T03:09:41;2.67;;;2.45;;
76171;SDS011;64929;51.178;4.138;2024-02-26T03:12:07;6.85;;;3.72;;
76171;SDS011;64929;51.178;4.138;2024-02-26T03:14:33;8.35;;;3.60;;
76171;SDS011;64929;51.178;4.138;2024-02-26T03:16:58;5.65;;;3.40;;
76171;SDS011;64929;51.178;4.138;2024-02-26T03:19:24;6.47;;;3.92;;
76171;SDS011;64929;51.178;4.138;2024-02-26T03:21:50;3.85;;;3.28;;
76171;SDS011;64929;51.178;4.138;2024-02-26T03:24:15;5.03;;;3.42;;
76171;SDS011;64929;51.178;4.138;2024-02-26T03:26:41;6.25;;;3.40;;
76171;SDS011;64929;51.178;4.138;2024-02-26T03:29:07;7.22;;;4.00;;
76171;SDS011;64929;51.178;4.138;2024-02-26T03:31:33;7.03;;;4.22;;
76171;SDS011;64929;51.178;4.138;2024-02-26T03:33:58;4.30;;;3.88;;
76171;SDS011;64929;51.178;4.138;2024-02-26T03:36:24;5.00;;;4.15;;
76171;SDS011;64929;51.178;4.138;2024-02-26T03:38:50;6.20;;;4.00;;
76171;SDS011;64929;51.178;4.138;2024-02-26T03:41:15;7.90;;;4.57;;
76171;SDS011;64929;51.178;4.138;2024-02-26T03:43:41;7.60;;;4.47;;
76171;SDS011;64929;51.178;4.138;2024-02-26T03:46:07;5.05;;;3.92;;
76171;SDS011;64929;51.178;4.138;2024-02-26T03:48:34;4.90;;;4.40;;
76171;SDS011;64929;51.178;4.138;2024-02-26T03:51:00;6.38;;;4.55;;
76171;SDS011;64929;51.178;4.138;2024-02-26T03:53:26;9.07;;;4.35;;
76171;SDS011;64929;51.178;4.138;2024-02-26T03:55:51;8.13;;;4.78;;
76171;SDS011;64929;51.178;4.138;2024-02-26T03:58:17;5.32;;;4.22;;
76171;SDS011;64929;51.178;4.138;2024-02-26T04:00:43;5.82;;;4.18;;
76171;SDS011;64929;51.178;4.138;2024-02-26T04:03:09;4.57;;;3.95;;
76171;SDS011;64929;51.178;4.138;2024-02-26T04:05:35;4.82;;;3.80;;
76171;SDS011;64929;51.178;4.138;2024-02-26T04:08:01;7.15;;;4.07;;
76171;SDS011;64929;51.178;4.138;2024-02-26T04:10:29;5.93;;;3.65;;
76171;SDS011;64929;51.178;4.138;2024-02-26T04:12:54;5.30;;;3.38;;
76171;SDS011;64929;51.178;4.138;2024-02-26T04:15:20;6.10;;;3.50;;
76171;SDS011;64929;51.178;4.138;2024-02-26T04:17:46;3.95;;;3.45;;
76171;SDS011;64929;51.178;4.138;2024-02-26T04:20:13;5.47;;;3.50;;
76171;SDS011;64929;51.178;4.138;2024-02-26T04:22:40;3.47;;;3.15;;
76171;SDS011;64929;51.178;4.138;2024-02-26T04:25:06;5.93;;;3.63;;
76171;SDS011;64929;51.178;4.138;2024-02-26T04:27:32;3.63;;;3.30;;
76171;SDS011;64929;51.178;4.138;2024-02-26T04:29:59;4.93;;;3.55;;
76171;SDS011;64929;51.178;4.138;2024-02-26T04:32:24;4.55;;;3.40;;
76171;SDS011;64929;51.178;4.138;2024-02-26T04:34:50;5.00;;;3.58;;
76171;SDS011;64929;51.178;4.138;2024-02-26T04:37:16;4.50;;;3.22;;
76171;SDS011;64929;51.178;4.138;2024-02-26T04:39:41;4.97;;;2.90;;
76171;SDS011;64929;51.178;4.138;2024-02-26T04:42:07;4.13;;;3.03;;
76171;SDS011;64929;51.178;4.138;2024-02-26T04:44:33;3.97;;;3.08;;
76171;SDS011;64929;51.178;4.138;2024-02-26T04:46:58;4.03;;;2.78;;
76171;SDS011;64929;51.178;4.138;2024-02-26T04:49:26;3.05;;;2.75;;
76171;SDS011;64929;51.178;4.138;2024-02-26T04:51:52;3.55;;;2.88;;
76171;SDS011;64929;51.178;4.138;2024-02-26T04:54:19;3.13;;;2.70;;
76171;SDS011;64929;51.178;4.138;2024-02-26T04:56:44;3.25;;;2.60;;
76171;SDS011;64929;51.178;4.138;2024-02-26T04:59:10;4.97;;;2.50;;
76171;SDS011;64929;51.178;4.138;2024-02-26T05:01:36;3.55;;;2.45;;
76171;SDS011;64929;51.178;4.138;2024-02-26T05:04:02;3.50;;;2.50;;
76171;SDS011;64929;51.178;4.138;2024-02-26T05:06:30;4.35;;;2.80;;
76171;SDS011;64929;51.178;4.138;2024-02-26T05:08:56;3.20;;;2.60;;
76171;SDS011;64929;51.178;4.138;2024-02-26T05:11:22;4.35;;;2.97;;
76171;SDS011;64929;51.178;4.138;2024-02-26T05:13:47;4.15;;;3.17;;
76171;SDS011;64929;51.178;4.138;2024-02-26T05:16:13;3.80;;;2.80;;
76171;SDS011;64929;51.178;4.138;2024-02-26T05:18:39;3.72;;;2.88;;
76171;SDS011;64929;51.178;4.138;2024-02-26T05:21:04;4.20;;;2.95;;
76171;SDS011;64929;51.178;4.138;2024-02-26T05:23:30;3.75;;;2.80;;
76171;SDS011;64929;51.178;4.138;2024-02-26T05:25:56;2.60;;;2.40;;
76171;SDS011;64929;51.178;4.138;2024-02-26T05:28:22;3.65;;;2.70;;
76171;SDS011;64929;51.178;4.138;2024-02-26T05:30:48;3.60;;;2.90;;
76171;SDS011;64929;51.178;4.138;2024-02-26T05:33:13;3.92;;;2.90;;
76171;SDS011;64929;51.178;4.138;2024-02-26T05:35:39;3.78;;;2.72;;
76171;SDS011;64929;51.178;4.138;2024-02-26T05:38:05;4.88;;;3.20;;
76171;SDS011;64929;51.178;4.138;2024-02-26T05:40:31;3.92;;;3.38;;
76171;SDS011;64929;51.178;4.138;2024-02-26T05:42:57;4.32;;;3.17;;
76171;SDS011;64929;51.178;4.138;2024-02-26T05:45:22;4.60;;;3.30;;
76171;SDS011;64929;51.178;4.138;2024-02-26T05:47:48;4.40;;;2.95;;
76171;SDS011;64929;51.178;4.138;2024-02-26T05:50:15;3.92;;;3.40;;
76171;SDS011;64929;51.178;4.138;2024-02-26T05:52:41;7.07;;;3.85;;
76171;SDS011;64929;51.178;4.138;2024-02-26T05:55:07;4.72;;;3.70;;
76171;SDS011;64929;51.178;4.138;2024-02-26T05:57:34;4.70;;;3.22;;
76171;SDS011;64929;51.178;4.138;2024-02-26T06:00:00;6.05;;;3.13;;
76171;SDS011;64929;51.178;4.138;2024-02-26T06:02:31;4.30;;;3.30;;
76171;SDS011;64929;51.178;4.138;2024-02-26T06:04:57;5.40;;;3.47;;
76171;SDS011;64929;51.178;4.138;2024-02-26T06:07:23;6.63;;;3.78;;
76171;SDS011;64929;51.178;4.138;2024-02-26T06:09:49;4.82;;;3.60;;
76171;SDS011;64929;51.178;4.138;2024-02-26T06:12:15;4.70;;;3.50;;
76171;SDS011;64929;51.178;4.138;2024-02-26T06:14:41;4.13;;;3.20;;
76171;SDS011;64929;51.178;4.138;2024-02-26T06:17:08;4.50;;;3.53;;
76171;SDS011;64929;51.178;4.138;2024-02-26T06:19:34;3.78;;;2.92;;
76171;SDS011;64929;51.178;4.138;2024-02-26T06:21:59;4.32;;;3.20;;
76171;SDS011;64929;51.178;4.138;2024-02-26T06:24:25;4.88;;;3.58;;
76171;SDS011;64929;51.178;4.138;2024-02-26T06:26:51;5.00;;;3.30;;
76171;SDS011;64929;51.178;4.138;2024-02-26T06:29:17;4.20;;;3.22;;
76171;SDS011;64929;51.178;4.138;2024-02-26T06:31:43;4.03;;;3.40;;
76171;SDS011;64929;51.178;4.138;2024-02-26T06:34:08;4.07;;;3.20;;
76171;SDS011;64929;51.178;4.138;2024-02-26T06:36:34;6.25;;;3.83;;
76171;SDS011;64929;51.178;4.138;2024-02-26T06:39:00;4.25;;;3.55;;
76171;SDS011;64929;51.178;4.138;2024-02-26T06:41:26;5.40;;;4.13;;
76171;SDS011;64929;51.178;4.138;2024-02-26T06:43:55;4.45;;;3.67;;
76171;SDS011;64929;51.178;4.138;2024-02-26T06:46:20;5.70;;;3.78;;
76171;SDS011;64929;51.178;4.138;2024-02-26T06:48:47;4.65;;;3.90;;
76171;SDS011;64929;51.178;4.138;2024-02-26T06:51:14;4.40;;;3.83;;
76171;SDS011;64929;51.178;4.138;2024-02-26T06:53:40;6.53;;;3.72;;
76171;SDS011;64929;51.178;4.138;2024-02-26T06:56:05;5.38;;;3.20;;
76171;SDS011;64929;51.178;4.138;2024-02-26T06:58:31;4.18;;;3.00;;
76171;SDS011;64929;51.178;4.138;2024-02-26T07:00:57;6.07;;;3.58;;
76171;SDS011;64929;51.178;4.138;2024-02-26T07:03:23;7.22;;;4.15;;
76171;SDS011;64929;51.178;4.138;2024-02-26T07:05:50;10.13;;;3.90;;
76171;SDS011;64929;51.178;4.138;2024-02-26T07:08:17;5.38;;;3.80;;
76171;SDS011;64929;51.178;4.138;2024-02-26T07:10:43;4.45;;;3.47;;
76171;SDS011;64929;51.178;4.138;2024-02-26T07:13:08;5.03;;;3.65;;
76171;SDS011;64929;51.178;4.138;2024-02-26T07:15:34;3.95;;;3.17;;
76171;SDS011;64929;51.178;4.138;2024-02-26T07:18:00;5.05;;;3.50;;
76171;SDS011;64929;51.178;4.138;2024-02-26T07:20:29;6.55;;;3.45;;
76171;SDS011;64929;51.178;4.138;2024-02-26T07:22:55;5.22;;;4.05;;
76171;SDS011;64929;51.178;4.138;2024-02-26T07:25:22;3.95;;;3.55;;
76171;SDS011;64929;51.178;4.138;2024-02-26T07:27:48;3.95;;;3.42;;
76171;SDS011;64929;51.178;4.138;2024-02-26T07:30:13;4.00;;;3.58;;
76171;SDS011;64929;51.178;4.138;2024-02-26T07:32:40;7.53;;;3.83;;
76171;SDS011;64929;51.178;4.138;2024-02-26T07:35:05;4.15;;;3.40;;
76171;SDS011;64929;51.178;4.138;2024-02-26T07:37:31;5.75;;;3.78;;
76171;SDS011;64929;51.178;4.138;2024-02-26T07:39:57;5.95;;;3.55;;
76171;SDS011;64929;51.178;4.138;2024-02-26T07:42:23;4.50;;;3.50;;
76171;SDS011;64929;51.178;4.138;2024-02-26T07:44:48;3.75;;;3.15;;
76171;SDS011;64929;51.178;4.138;2024-02-26T07:47:14;4.88;;;3.42;;
76171;SDS011;64929;51.178;4.138;2024-02-26T07:49:40;3.63;;;2.97;;
76171;SDS011;64929;51.178;4.138;2024-02-26T07:52:06;5.78;;;3.38;;
76171;SDS011;64929;51.178;4.138;2024-02-26T07:54:32;3.40;;;2.78;;
76171;SDS011;64929;51.178;4.138;2024-02-26T07:56:57;3.42;;;3.05;;
76171;SDS011;64929;51.178;4.138;2024-02-26T07:59:23;4.72;;;3.33;;
76171;SDS011;64929;51.178;4.138;2024-02-26T08:01:52;3.38;;;2.67;;
76171;SDS011;64929;51.178;4.138;2024-02-26T08:04:18;4.00;;;3.00;;
76171;SDS011;64929;51.178;4.138;2024-02-26T08:06:44;4.03;;;3.17;;
76171;SDS011;64929;51.178;4.138;2024-02-26T08:09:09;6.30;;;3.38;;
76171;SDS011;64929;51.178;4.138;2024-02-26T08:11:35;3.90;;;2.92;;
76171;SDS011;64929;51.178;4.138;2024-02-26T08:14:01;4.43;;;3.10;;
76171;SDS011;64929;51.178;4.138;2024-02-26T08:16:27;4.00;;;3.10;;
76171;SDS011;64929;51.178;4.138;2024-02-26T08:18:53;6.68;;;2.75;;
76171;SDS011;64929;51.178;4.138;2024-02-26T08:21:19;4.40;;;3.20;;
76171;SDS011;64929;51.178;4.138;2024-02-26T08:23:45;3.92;;;3.13;;
76171;SDS011;64929;51.178;4.138;2024-02-26T08:26:10;4.35;;;3.25;;
76171;SDS011;64929;51.178;4.138;2024-02-26T08:28:37;4.38;;;3.38;;
76171;SDS011;64929;51.178;4.138;2024-02-26T08:31:03;8.65;;;3.50;;
76171;SDS011;64929;51.178;4.138;2024-02-26T08:33:29;7.28;;;3.45;;
76171;SDS011;64929;51.178;4.138;2024-02-26T08:35:56;4.70;;;3.45;;
76171;SDS011;64929;51.178;4.138;2024-02-26T08:38:21;5.03;;;3.55;;
76171;SDS011;64929;51.178;4.138;2024-02-26T08:40:48;4.72;;;3.90;;
76171;SDS011;64929;51.178;4.138;2024-02-26T08:43:14;7.57;;;3.90;;
76171;SDS011;64929;51.178;4.138;2024-02-26T08:45:39;5.47;;;3.88;;
76171;SDS011;64929;51.178;4.138;2024-02-26T08:48:05;4.57;;;3.58;;
76171;SDS011;64929;51.178;4.138;2024-02-26T08:50:32;5.38;;;3.90;;
76171;SDS011;64929;51.178;4.138;2024-02-26T08:52:58;4.75;;;3.85;;
76171;SDS011;64929;51.178;4.138;2024-02-26T08:55:26;5.65;;;4.05;;
76171;SDS011;64929;51.178;4.138;2024-02-26T08:57:51;6.20;;;4.22;;
76171;SDS011;64929;51.178;4.138;2024-02-26T09:00:17;5.47;;;3.80;;
76171;SDS011;64929;51.178;4.138;2024-02-26T09:02:45;6.78;;;3.95;;
76171;SDS011;64929;51.178;4.138;2024-02-26T09:05:12;6.43;;;4.22;;
76171;SDS011;64929;51.178;4.138;2024-02-26T09:07:38;7.47;;;4.85;;
76171;SDS011;64929;51.178;4.138;2024-02-26T09:10:04;6.68;;;4.40;;
76171;SDS011;64929;51.178;4.138;2024-02-26T09:12:33;5.03;;;4.10;;
76171;SDS011;64929;51.178;4.138;2024-02-26T09:14:59;5.97;;;4.32;;
76171;SDS011;64929;51.178;4.138;2024-02-26T09:17:24;6.50;;;3.97;;
76171;SDS011;64929;51.178;4.138;2024-02-26T09:19:50;6.88;;;4.18;;
76171;SDS011;64929;51.178;4.138;2024-02-26T09:22:16;6.25;;;4.35;;
76171;SDS011;64929;51.178;4.138;2024-02-26T09:24:41;5.60;;;4.22;;
76171;SDS011;64929;51.178;4.138;2024-02-26T09:27:07;8.48;;;4.88;;
76171;SDS011;64929;51.178;4.138;2024-02-26T09:29:35;5.35;;;4.45;;
76171;SDS011;64929;51.178;4.138;2024-02-26T09:32:01;6.47;;;4.50;;
76171;SDS011;64929;51.178;4.138;2024-02-26T09:34:27;7.55;;;5.40;;
76171;SDS011;64929;51.178;4.138;2024-02-26T09:36:53;6.47;;;4.80;;
76171;SDS011;64929;51.178;4.138;2024-02-26T09:39:19;6.18;;;4.28;;
76171;SDS011;64929;51.178;4.138;2024-02-26T09:41:47;5.63;;;4.03;;
76171;SDS011;64929;51.178;4.138;2024-02-26T09:44:15;6.88;;;5.25;;
76171;SDS011;64929;51.178;4.138;2024-02-26T09:46:48;6.28;;;4.30;;
76171;SDS011;64929;51.178;4.138;2024-02-26T09:49:16;5.25;;;4.22;;
76171;SDS011;64929;51.178;4.138;2024-02-26T09:51:44;6.55;;;4.65;;
76171;SDS011;64929;51.178;4.138;2024-02-26T09:54:12;6.63;;;4.90;;
76171;SDS011;64929;51.178;4.138;2024-02-26T09:56:39;6.85;;;4.50;;
76171;SDS011;64929;51.178;4.138;2024-02-26T09:59:13;5.57;;;4.10;;
76171;SDS011;64929;51.178;4.138;2024-02-26T10:01:40;5.95;;;4.43;;
76171;SDS011;64929;51.178;4.138;2024-02-26T10:04:08;6.40;;;4.35;;
76171;SDS011;64929;51.178;4.138;2024-02-26T10:06:36;5.18;;;4.35;;
76171;SDS011;64929;51.178;4.138;2024-02-26T10:09:03;6.47;;;4.88;;
76171;SDS011;64929;51.178;4.138;2024-02-26T10:11:32;7.55;;;4.28;;
76171;SDS011;64929;51.178;4.138;2024-02-26T10:13:58;6.45;;;5.00;;
76171;SDS011;64929;51.178;4.138;2024-02-26T10:16:24;7.63;;;5.10;;
76171;SDS011;64929;51.178;4.138;2024-02-26T10:18:51;9.43;;;5.07;;
76171;SDS011;64929;51.178;4.138;2024-02-26T10:21:19;6.40;;;4.78;;
76171;SDS011;64929;51.178;4.138;2024-02-26T10:23:45;6.05;;;4.63;;
76171;SDS011;64929;51.178;4.138;2024-02-26T10:26:12;6.65;;;4.40;;
76171;SDS011;64929;51.178;4.138;2024-02-26T10:28:41;9.57;;;5.13;;
76171;SDS011;64929;51.178;4.138;2024-02-26T10:31:08;7.68;;;5.43;;
76171;SDS011;64929;51.178;4.138;2024-02-26T10:33:34;8.15;;;5.20;;
76171;SDS011;64929;51.178;4.138;2024-02-26T10:36:02;46.67;;;18.08;;
76171;SDS011;64929;51.178;4.138;2024-02-26T10:38:29;12.77;;;7.88;;
76171;SDS011;64929;51.178;4.138;2024-02-26T10:40:55;10.10;;;6.88;;
76171;SDS011;64929;51.178;4.138;2024-02-26T10:43:21;7.25;;;5.45;;
76171;SDS011;64929;51.178;4.138;2024-02-26T10:45:46;7.97;;;5.45;;
76171;SDS011;64929;51.178;4.138;2024-02-26T10:48:13;7.15;;;5.00;;
76171;SDS011;64929;51.178;4.138;2024-02-26T10:50:39;9.10;;;5.70;;
76171;SDS011;64929;51.178;4.138;2024-02-26T10:53:09;7.55;;;5.40;;
76171;SDS011;64929;51.178;4.138;2024-02-26T10:55:52;7.28;;;5.00;;
76171;SDS011;64929;51.178;4.138;2024-02-26T10:58:26;8.07;;;5.47;;
76171;SDS011;64929;51.178;4.138;2024-02-26T11:00:53;9.82;;;6.32;;
76171;SDS011;64929;51.178;4.138;2024-02-26T11:03:22;11.07;;;6.13;;
76171;SDS011;64929;51.178;4.138;2024-02-26T11:05:49;9.70;;;5.82;;
76171;SDS011;64929;51.178;4.138;2024-02-26T11:08:16;11.27;;;6.30;;
76171;SDS011;64929;51.178;4.138;2024-02-26T11:10:46;9.55;;;6.13;;
76171;SDS011;64929;51.178;4.138;2024-02-26T11:13:14;10.38;;;6.18;;
76171;SDS011;64929;51.178;4.138;2024-02-26T11:15:42;10.80;;;6.25;;
76171;SDS011;64929;51.178;4.138;2024-02-26T11:18:09;9.60;;;5.88;;
76171;SDS011;64929;51.178;4.138;2024-02-26T11:20:38;12.30;;;6.50;;
76171;SDS011;64929;51.178;4.138;2024-02-26T11:23:05;12.65;;;6.97;;
76171;SDS011;64929;51.178;4.138;2024-02-26T11:25:33;11.52;;;6.55;;
76171;SDS011;64929;51.178;4.138;2024-02-26T11:28:05;9.95;;;6.40;;
76171;SDS011;64929;51.178;4.138;2024-02-26T11:30:35;11.07;;;5.80;;
76171;SDS011;64929;51.178;4.138;2024-02-26T11:33:06;11.13;;;6.30;;
76171;SDS011;64929;51.178;4.138;2024-02-26T11:35:34;9.00;;;5.45;;
76171;SDS011;64929;51.178;4.138;2024-02-26T11:38:01;8.52;;;5.32;;
76171;SDS011;64929;51.178;4.138;2024-02-26T11:40:28;9.63;;;5.97;;
76171;SDS011;64929;51.178;4.138;2024-02-26T11:42:56;10.02;;;6.30;;
76171;SDS011;64929;51.178;4.138;2024-02-26T11:48:11;9.32;;;5.55;;
76171;SDS011;64929;51.178;4.138;2024-02-26T11:53:26;8.43;;;5.60;;
76171;SDS011;64929;51.178;4.138;2024-02-26T11:59:03;8.85;;;5.60;;
76171;SDS011;64929;51.178;4.138;2024-02-26T12:06:47;11.27;;;5.78;;
76171;SDS011;64929;51.178;4.138;2024-02-26T12:09:33;10.00;;;5.32;;
76171;SDS011;64929;51.178;4.138;2024-02-26T12:12:01;9.93;;;5.45;;
76171;SDS011;64929;51.178;4.138;2024-02-26T12:14:29;8.38;;;4.88;;
76171;SDS011;64929;51.178;4.138;2024-02-26T12:16:57;8.85;;;4.95;;
76171;SDS011;64929;51.178;4.138;2024-02-26T12:19:24;7.40;;;4.78;;
76171;SDS011;64929;51.178;4.138;2024-02-26T12:21:53;8.02;;;4.97;;
76171;SDS011;64929;51.178;4.138;2024-02-26T12:24:21;6.78;;;4.50;;
76171;SDS011;64929;51.178;4.138;2024-02-26T12:26:47;8.43;;;5.10;;
76171;SDS011;64929;51.178;4.138;2024-02-26T12:29:13;9.38;;;6.00;;
76171;SDS011;64929;51.178;4.138;2024-02-26T12:31:40;8.32;;;5.47;;
76171;SDS011;64929;51.178;4.138;2024-02-26T12:34:06;9.00;;;6.07;;
76171;SDS011;64929;51.178;4.138;2024-02-26T12:36:34;8.25;;;4.95;;
76171;SDS011;64929;51.178;4.138;2024-02-26T12:39:01;9.68;;;5.05;;
76171;SDS011;64929;51.178;4.138;2024-02-26T12:41:27;7.82;;;4.72;;
76171;SDS011;64929;51.178;4.138;2024-02-26T12:43:55;9.48;;;5.80;;
76171;SDS011;64929;51.178;4.138;2024-02-26T12:46:22;8.20;;;5.18;;
76171;SDS011;64929;51.178;4.138;2024-02-26T12:48:48;6.72;;;4.50;;
76171;SDS011;64929;51.178;4.138;2024-02-26T12:51:14;6.50;;;4.53;;
76171;SDS011;64929;51.178;4.138;2024-02-26T12:53:42;8.82;;;4.70;;
76171;SDS011;64929;51.178;4.138;2024-02-26T12:56:09;6.65;;;4.03;;
76171;SDS011;64929;51.178;4.138;2024-02-26T12:58:37;5.90;;;4.60;;
76171;SDS011;64929;51.178;4.138;2024-02-26T13:01:04;6.72;;;4.28;;
76171;SDS011;64929;51.178;4.138;2024-02-26T13:03:32;7.80;;;4.07;;
76171;SDS011;64929;51.178;4.138;2024-02-26T13:06:00;5.88;;;4.25;;
76171;SDS011;64929;51.178;4.138;2024-02-26T13:08:27;6.78;;;3.78;;
76171;SDS011;64929;51.178;4.138;2024-02-26T13:10:52;6.43;;;3.95;;
76171;SDS011;64929;51.178;4.138;2024-02-26T13:13:18;6.95;;;4.35;;
76171;SDS011;64929;51.178;4.138;2024-02-26T13:15:44;7.80;;;4.82;;
76171;SDS011;64929;51.178;4.138;2024-02-26T13:18:11;5.93;;;4.30;;
76171;SDS011;64929;51.178;4.138;2024-02-26T13:20:38;6.97;;;4.57;;
76171;SDS011;64929;51.178;4.138;2024-02-26T13:23:08;6.40;;;4.38;;
76171;SDS011;64929;51.178;4.138;2024-02-26T13:25:37;6.47;;;4.40;;
76171;SDS011;64929;51.178;4.138;2024-02-26T13:28:06;6.65;;;4.95;;
76171;SDS011;64929;51.178;4.138;2024-02-26T13:30:39;6.50;;;4.90;;
76171;SDS011;64929;51.178;4.138;2024-02-26T13:33:09;5.78;;;4.10;;
76171;SDS011;64929;51.178;4.138;2024-02-26T13:35:40;6.60;;;4.55;;
76171;SDS011;64929;51.178;4.138;2024-02-26T13:38:06;5.30;;;3.80;;
76171;SDS011;64929;51.178;4.138;2024-02-26T13:40:32;6.00;;;4.13;;
76171;SDS011;64929;51.178;4.138;2024-02-26T13:43:01;6.10;;;4.60;;
76171;SDS011;64929;51.178;4.138;2024-02-26T13:45:28;6.03;;;4.00;;
76171;SDS011;64929;51.178;4.138;2024-02-26T13:47:53;6.00;;;4.05;;
76171;SDS011;64929;51.178;4.138;2024-02-26T13:50:19;6.93;;;4.57;;
76171;SDS011;64929;51.178;4.138;2024-02-26T13:52:47;5.45;;;4.40;;
76171;SDS011;64929;51.178;4.138;2024-02-26T13:55:18;6.65;;;3.83;;
76171;SDS011;64929;51.178;4.138;2024-02-26T13:57:44;4.75;;;3.58;;
76171;SDS011;64929;51.178;4.138;2024-02-26T14:00:10;4.93;;;3.70;;
76171;SDS011;64929;51.178;4.138;2024-02-26T14:02:36;4.45;;;3.35;;
76171;SDS011;64929;51.178;4.138;2024-02-26T14:05:02;4.75;;;3.22;;
76171;SDS011;64929;51.178;4.138;2024-02-26T14:07:29;4.75;;;3.70;;
76171;SDS011;64929;51.178;4.138;2024-02-26T14:09:57;6.10;;;4.15;;
76171;SDS011;64929;51.178;4.138;2024-02-26T14:12:23;5.35;;;3.75;;
76171;SDS011;64929;51.178;4.138;2024-02-26T14:14:49;7.28;;;4.22;;
76171;SDS011;64929;51.178;4.138;2024-02-26T14:17:14;6.35;;;4.50;;
76171;SDS011;64929;51.178;4.138;2024-02-26T14:19:41;5.40;;;4.32;;
76171;SDS011;64929;51.178;4.138;2024-02-26T14:22:12;6.65;;;3.90;;
76171;SDS011;64929;51.178;4.138;2024-02-26T14:24:38;6.20;;;4.65;;
76171;SDS011;64929;51.178;4.138;2024-02-26T14:27:05;5.55;;;4.05;;
76171;SDS011;64929;51.178;4.138;2024-02-26T14:29:32;8.68;;;4.72;;
76171;SDS011;64929;51.178;4.138;2024-02-26T14:31:58;6.05;;;4.35;;
76171;SDS011;64929;51.178;4.138;2024-02-26T14:34:24;6.50;;;4.20;;
76171;SDS011;64929;51.178;4.138;2024-02-26T14:36:49;5.45;;;4.35;;
76171;SDS011;64929;51.178;4.138;2024-02-26T14:39:15;5.20;;;4.13;;
76171;SDS011;64929;51.178;4.138;2024-02-26T14:41:41;5.13;;;3.88;;
76171;SDS011;64929;51.178;4.138;2024-02-26T14:44:07;5.45;;;3.47;;
76171;SDS011;64929;51.178;4.138;2024-02-26T14:46:33;6.28;;;3.70;;
76171;SDS011;64929;51.178;4.138;2024-02-26T14:49:00;6.00;;;4.10;;
76171;SDS011;64929;51.178;4.138;2024-02-26T14:51:25;5.72;;;4.28;;
76171;SDS011;64929;51.178;4.138;2024-02-26T14:53:51;5.95;;;4.55;;
76171;SDS011;64929;51.178;4.138;2024-02-26T14:56:18;7.63;;;4.30;;
76171;SDS011;64929;51.178;4.138;2024-02-26T14:58:44;8.90;;;6.05;;
76171;SDS011;64929;51.178;4.138;2024-02-26T15:01:10;7.60;;;5.28;;